createdAt,value
2019-03-01T00:01:03.959Z,100315.47
2019-03-01T00:03:37.525Z,100313.78
2019-03-01T00:06:45.865Z,100315.53
2019-03-01T00:10:16.258Z,100323.92
2019-03-01T00:13:47.308Z,100320.42
2019-03-01T00:17:26.683Z,100318.30
2019-03-01T00:21:02.867Z,100320.49
2019-03-01T00:24:16.908Z,100317.81
2019-03-01T00:27:31.192Z,100318.30
2019-03-01T00:31:20.046Z,100325.77
2019-03-01T00:34:43.726Z,100334.94
2019-03-01T00:38:06.420Z,100337.08
2019-03-01T00:41:50.160Z,100346.22
2019-03-01T00:44:48.960Z,100343.59
2019-03-01T00:47:20.882Z,100346.66
2019-03-01T00:49:52.751Z,100347.97
2019-03-01T00:52:24.564Z,100344.03
2019-03-01T00:54:56.477Z,100340.50
2019-03-01T00:57:28.308Z,100340.50
2019-03-01T01:00:00.489Z,100327.73
2019-03-01T01:02:32.843Z,100326.34
2019-03-01T01:05:05.306Z,100318.95
2019-03-01T01:07:37.222Z,100318.53
2019-03-01T01:10:09.024Z,100323.35
2019-03-01T01:12:42.393Z,100315.48
2019-03-01T01:15:14.315Z,100311.55
2019-03-01T01:17:46.119Z,100309.33
2019-03-01T01:20:17.988Z,100302.82
2019-03-01T01:22:49.826Z,100295.45
2019-03-01T01:25:21.648Z,100287.50
2019-03-01T01:27:53.494Z,100282.27
2019-03-01T01:30:25.404Z,100274.80
2019-03-01T01:32:58.228Z,100278.45
2019-03-01T01:35:32.612Z,100271.89
2019-03-01T01:38:04.468Z,100265.33
2019-03-01T01:40:36.210Z,100256.27
2019-03-01T01:43:08.072Z,100266.90
2019-03-01T01:45:40.012Z,100262.09
2019-03-01T01:48:11.815Z,100259.08
2019-03-01T01:50:44.712Z,100256.84
2019-03-01T01:53:16.540Z,100264.73
2019-03-01T01:55:48.362Z,100259.48
2019-03-01T01:58:20.316Z,100266.04
2019-03-01T02:00:52.070Z,100259.91
2019-03-01T02:03:24.103Z,100267.73
2019-03-01T02:05:56.060Z,100281.22
2019-03-01T02:08:27.904Z,100273.28
2019-03-01T02:10:59.842Z,100267.66
2019-03-01T02:13:31.650Z,100275.09
2019-03-01T02:16:03.482Z,100258.08
2019-03-01T02:18:35.392Z,100265.08
2019-03-01T02:21:07.239Z,100258.45
2019-03-01T02:23:40.164Z,100242.72
2019-03-01T02:26:12.268Z,100245.78
2019-03-01T02:28:44.127Z,100243.64
2019-03-01T02:31:17.488Z,100236.64
2019-03-01T02:33:49.405Z,100232.26
2019-03-01T02:36:21.264Z,100225.62
2019-03-01T02:38:53.065Z,100227.32
2019-03-01T02:41:24.892Z,100227.23
2019-03-01T02:43:56.737Z,100229.87
2019-03-01T02:46:28.573Z,100236.52
2019-03-01T02:49:00.377Z,100232.63
2019-03-01T02:51:32.159Z,100219.12
2019-03-01T02:54:04.045Z,100224.38
2019-03-01T02:56:35.869Z,100219.07
2019-03-01T02:59:07.725Z,100223.82
2019-03-01T03:01:39.541Z,100228.13
2019-03-01T03:04:11.376Z,100234.68
2019-03-01T03:06:48.742Z,100238.23
2019-03-01T03:09:21.541Z,100231.67
2019-03-01T03:11:53.363Z,100232.17
2019-03-01T03:14:25.324Z,100223.43
2019-03-01T03:16:59.604Z,100223.50
2019-03-01T03:19:38.717Z,100216.88
2019-03-01T03:22:11.661Z,100212.52
2019-03-01T03:24:44.799Z,100219.48
2019-03-01T03:27:16.947Z,100215.50
2019-03-01T03:29:52.896Z,100219.41
2019-03-01T03:32:27.438Z,100220.72
2019-03-01T03:35:03.941Z,100215.47
2019-03-01T03:37:35.841Z,100215.47
2019-03-01T03:40:09.345Z,100210.64
2019-03-01T03:42:41.381Z,100211.52
2019-03-01T03:45:14.024Z,100210.69
2019-03-01T03:47:46.063Z,100203.66
2019-03-01T03:50:17.951Z,100200.59
2019-03-01T03:52:54.149Z,100199.80
2019-03-01T03:55:30.029Z,100199.00
2019-03-01T03:58:02.497Z,100195.50
2019-03-01T04:00:34.438Z,100189.81
2019-03-01T04:03:10.441Z,100195.92
2019-03-01T04:05:45.403Z,100192.81
2019-03-01T04:08:17.500Z,100187.18
2019-03-01T04:10:50.616Z,100186.31
2019-03-01T04:13:23.018Z,100193.30
2019-03-01T04:15:57.793Z,100191.11
2019-03-01T04:18:31.629Z,100189.80
2019-03-01T04:21:03.458Z,100196.38
2019-03-01T04:23:35.807Z,100197.68
2019-03-01T04:26:14.119Z,100187.59
2019-03-01T04:28:50.435Z,100182.34
2019-03-01T04:31:23.786Z,100184.83
2019-03-01T04:33:55.638Z,100180.43
2019-03-01T04:36:30.746Z,100185.27
2019-03-01T04:39:03.501Z,100184.41
2019-03-01T04:41:37.568Z,100188.34
2019-03-01T04:44:11.748Z,100188.41
2019-03-01T04:46:55.824Z,100184.81
2019-03-01T04:49:32.290Z,100184.84
2019-03-01T04:52:48.081Z,100184.84
2019-03-01T04:55:28.756Z,100179.28
2019-03-01T04:58:02.399Z,100173.55
2019-03-01T05:00:36.979Z,100169.66
2019-03-01T05:03:09.814Z,100169.69
2019-03-01T05:05:44.727Z,100165.36
2019-03-01T05:08:18.155Z,100169.80
2019-03-01T05:10:54.626Z,100169.31
2019-03-01T05:13:31.510Z,100168.42
2019-03-01T05:16:06.293Z,100163.12
2019-03-01T05:18:44.375Z,100163.12
2019-03-01T05:21:20.371Z,100158.73
2019-03-01T05:23:52.665Z,100157.83
2019-03-01T05:26:24.883Z,100153.04
2019-03-01T05:28:57.276Z,100147.80
2019-03-01T05:31:40.784Z,100142.59
2019-03-01T05:34:14.530Z,100139.03
2019-03-01T05:36:49.641Z,100140.42
2019-03-01T05:39:29.807Z,100140.92
2019-03-01T05:42:02.151Z,100130.88
2019-03-01T05:44:47.009Z,100121.69
2019-03-01T05:47:23.570Z,100126.95
2019-03-01T05:50:00.446Z,100129.67
2019-03-01T05:52:36.733Z,100125.31
2019-03-01T05:55:10.311Z,100135.36
2019-03-01T05:58:34.324Z,100136.67
2019-03-01T06:01:41.607Z,100131.00
2019-03-01T06:04:42.511Z,100137.57
2019-03-01T06:08:17.144Z,100133.23
2019-03-01T06:11:45.351Z,100138.87
2019-03-01T06:15:28.058Z,100131.48
2019-03-01T06:18:58.342Z,100127.48
2019-03-01T06:22:55.220Z,100122.20
2019-03-01T06:26:37.300Z,100121.75
2019-03-01T06:30:13.132Z,100111.19
2019-03-01T06:33:36.925Z,100108.13
2019-03-01T06:36:37.434Z,100103.29
2019-03-01T06:39:52.483Z,100109.45
2019-03-01T06:43:38.030Z,100109.81
2019-03-01T06:47:02.461Z,100111.20
2019-03-01T06:49:59.802Z,100101.98
2019-03-01T06:52:31.815Z,100107.15
2019-03-01T06:55:05.885Z,100111.53
2019-03-01T06:57:40.282Z,100113.20
2019-03-01T07:00:12.457Z,100112.35
2019-03-01T07:02:48.735Z,100107.59
2019-03-01T07:05:33.158Z,100106.20
2019-03-01T07:08:09.226Z,100109.25
2019-03-01T07:10:41.321Z,100119.25
2019-03-01T07:13:17.381Z,100112.23
2019-03-01T07:15:52.457Z,100115.30
2019-03-01T07:18:29.291Z,100110.30
2019-03-01T07:21:01.158Z,100110.30
2019-03-01T07:23:37.178Z,100112.91
2019-03-01T07:26:12.840Z,100106.81
2019-03-01T07:28:49.427Z,100109.35
2019-03-01T07:31:25.617Z,100105.38
2019-03-01T07:33:57.836Z,100110.62
2019-03-01T07:36:30.903Z,100104.48
2019-03-01T07:39:10.923Z,100102.72
2019-03-01T07:41:44.327Z,100097.37
2019-03-01T07:44:16.699Z,100101.77
2019-03-01T07:46:53.287Z,100100.02
2019-03-01T07:49:25.586Z,100096.44
2019-03-01T07:52:01.720Z,100099.05
2019-03-01T07:54:35.999Z,100105.16
2019-03-01T07:57:07.933Z,100113.28
2019-03-01T07:59:39.845Z,100109.11
2019-03-01T08:02:11.718Z,100104.61
2019-03-01T08:04:44.611Z,100113.26
2019-03-01T08:07:16.481Z,100114.02
2019-03-01T08:09:48.296Z,100120.55
2019-03-01T08:12:20.105Z,100121.45
2019-03-01T08:14:51.988Z,100121.48
2019-03-01T08:17:23.872Z,100127.19
2019-03-01T08:19:58.734Z,100128.05
2019-03-01T08:22:30.227Z,100130.78
2019-03-01T08:25:02.697Z,100127.74
2019-03-01T08:27:34.723Z,100127.31
2019-03-01T08:30:10.500Z,100127.62
2019-03-01T08:32:41.904Z,100135.87
2019-03-01T08:35:14.633Z,100138.50
2019-03-01T08:37:49.811Z,100137.59
2019-03-01T08:40:20.046Z,100137.33
2019-03-01T08:42:51.933Z,100132.98
2019-03-01T08:45:23.898Z,100144.77
2019-03-01T08:47:58.908Z,100136.36
2019-03-01T08:50:29.492Z,100141.13
2019-03-01T08:53:01.405Z,100138.04
2019-03-01T08:55:35.420Z,100138.58
2019-03-01T08:58:07.233Z,100145.66
2019-03-01T09:00:41.178Z,100151.03
2019-03-01T09:03:26.801Z,100152.07
2019-03-01T09:05:58.753Z,100161.80
2019-03-01T09:08:30.657Z,100161.84
2019-03-01T09:11:05.546Z,100163.64
2019-03-01T09:13:36.360Z,100159.70
2019-03-01T09:16:08.354Z,100164.06
2019-03-01T09:18:40.331Z,100158.38
2019-03-01T09:21:13.587Z,100155.68
2019-03-01T09:23:47.926Z,100148.66
2019-03-01T09:26:19.920Z,100153.04
2019-03-01T09:28:52.852Z,100155.73
2019-03-01T09:31:24.914Z,100143.39
2019-03-01T09:33:57.402Z,100150.41
2019-03-01T09:36:35.972Z,100154.84
2019-03-01T09:39:10.962Z,100154.00
2019-03-01T09:41:43.049Z,100151.42
2019-03-01T09:44:15.040Z,100152.67
2019-03-01T09:46:47.138Z,100150.52
2019-03-01T09:49:21.419Z,100141.23
2019-03-01T09:51:53.866Z,100143.14
2019-03-01T09:54:25.796Z,100144.77
2019-03-01T09:56:57.862Z,100142.52
2019-03-01T09:59:29.800Z,100142.86
2019-03-01T10:02:01.993Z,100145.37
2019-03-01T10:04:35.091Z,100144.05
2019-03-01T10:07:07.114Z,100142.20
2019-03-01T10:09:39.245Z,100139.20
2019-03-01T10:12:11.404Z,100134.47
2019-03-01T10:14:43.464Z,100135.08
2019-03-01T10:17:15.418Z,100132.94
2019-03-01T10:19:47.302Z,100142.48
2019-03-01T10:22:19.216Z,100135.44
2019-03-01T10:24:51.152Z,100140.08
2019-03-01T10:27:23.032Z,100144.91
2019-03-01T10:29:54.870Z,100148.75
2019-03-01T10:32:26.752Z,100142.45
2019-03-01T10:34:58.700Z,100151.23
2019-03-01T10:37:30.546Z,100147.50
2019-03-01T10:40:02.561Z,100149.39
2019-03-01T10:42:35.552Z,100148.05
2019-03-01T10:45:10.461Z,100151.52
2019-03-01T10:47:42.527Z,100148.44
2019-03-01T10:50:14.729Z,100149.72
2019-03-01T10:52:55.066Z,100151.03
2019-03-01T10:55:26.959Z,100149.24
2019-03-01T10:57:58.828Z,100144.34
2019-03-01T11:00:30.740Z,100145.16
2019-03-01T11:03:02.627Z,100147.38
2019-03-01T11:05:34.487Z,100145.02
2019-03-01T11:08:06.332Z,100148.34
2019-03-01T11:10:38.865Z,100150.02
2019-03-01T11:13:10.836Z,100150.48
2019-03-01T11:15:42.672Z,100151.03
2019-03-01T11:18:14.537Z,100160.73
2019-03-01T11:20:46.477Z,100159.53
2019-03-01T11:23:18.411Z,100166.53
2019-03-01T11:25:50.341Z,100165.27
2019-03-01T11:28:22.187Z,100170.36
2019-03-01T11:30:54.111Z,100176.91
2019-03-01T11:33:25.987Z,100175.80
2019-03-01T11:35:57.945Z,100172.08
2019-03-01T11:38:29.983Z,100167.28
2019-03-01T11:41:02.102Z,100165.41
2019-03-01T11:43:34.131Z,100165.79
2019-03-01T11:46:06.030Z,100164.49
2019-03-01T11:48:37.973Z,100158.83
2019-03-01T11:51:10.031Z,100157.45
2019-03-01T11:53:42.005Z,100152.39
2019-03-01T11:56:13.862Z,100150.90
2019-03-01T11:58:45.722Z,100145.73
2019-03-01T12:01:18.866Z,100152.16
2019-03-01T12:03:50.845Z,100150.38
2019-03-01T12:06:22.731Z,100147.33
2019-03-01T12:08:54.695Z,100158.42
2019-03-01T12:11:26.578Z,100153.17
2019-03-01T12:13:58.537Z,100155.95
2019-03-01T12:16:30.473Z,100157.98
2019-03-01T12:19:02.400Z,100164.20
2019-03-01T12:21:34.264Z,100171.41
2019-03-01T12:24:06.287Z,100172.55
2019-03-01T12:26:38.137Z,100169.91
2019-03-01T12:29:10.171Z,100164.42
2019-03-01T12:31:42.273Z,100170.36
2019-03-01T12:34:14.235Z,100179.69
2019-03-01T12:36:46.207Z,100178.36
2019-03-01T12:39:18.270Z,100186.00
2019-03-01T12:41:50.248Z,100190.11
2019-03-01T12:44:22.191Z,100177.27
2019-03-01T12:46:55.706Z,100187.14
2019-03-01T12:49:27.736Z,100184.58
2019-03-01T12:51:59.691Z,100188.53
2019-03-01T12:54:31.773Z,100184.64
2019-03-01T12:57:04.014Z,100187.53
2019-03-01T12:59:36.140Z,100181.30
2019-03-01T13:02:08.311Z,100189.46
2019-03-01T13:04:40.265Z,100196.42
2019-03-01T13:07:13.219Z,100200.17
2019-03-01T13:09:46.313Z,100200.75
2019-03-01T13:12:18.364Z,100207.30
2019-03-01T13:14:50.764Z,100207.38
2019-03-01T13:17:22.743Z,100209.05
2019-03-01T13:19:57.538Z,100209.06
2019-03-01T13:22:28.674Z,100218.62
2019-03-01T13:25:00.722Z,100215.92
2019-03-01T13:27:33.030Z,100213.19
2019-03-01T13:30:05.989Z,100205.67
2019-03-01T13:32:40.027Z,100198.30
2019-03-01T13:35:12.743Z,100198.52
2019-03-01T13:37:44.904Z,100202.72
2019-03-01T13:40:20.838Z,100211.38
2019-03-01T13:42:52.322Z,100213.03
2019-03-01T13:45:24.427Z,100223.16
2019-03-01T13:47:57.367Z,100213.45
2019-03-01T13:50:29.478Z,100222.61
2019-03-01T13:53:01.621Z,100209.48
2019-03-01T13:55:33.677Z,100204.77
2019-03-01T13:58:08.202Z,100208.16
2019-03-01T14:00:42.052Z,100210.21
2019-03-01T14:03:14.350Z,100215.92
2019-03-01T14:05:47.299Z,100220.56
2019-03-01T14:08:19.637Z,100236.44
2019-03-01T14:10:51.528Z,100238.02
2019-03-01T14:13:23.350Z,100232.31
2019-03-01T14:15:55.561Z,100237.80
2019-03-01T14:18:27.841Z,100236.48
2019-03-01T14:20:59.691Z,100243.16
2019-03-01T14:23:32.172Z,100242.50
2019-03-01T14:26:04.138Z,100249.53
2019-03-01T14:28:38.057Z,100249.38
2019-03-01T14:31:09.643Z,100255.69
2019-03-01T14:33:41.520Z,100266.49
2019-03-01T14:36:13.450Z,100266.77
2019-03-01T14:38:45.326Z,100264.79
2019-03-01T14:41:17.359Z,100269.00
2019-03-01T14:43:49.308Z,100273.33
2019-03-01T14:46:22.105Z,100282.51
2019-03-01T14:48:54.126Z,100287.06
2019-03-01T14:51:26.027Z,100292.89
2019-03-01T14:53:58.019Z,100299.19
2019-03-01T14:56:36.268Z,100295.29
2019-03-01T14:59:42.528Z,100297.87
2019-03-01T15:03:15.916Z,100305.32
2019-03-01T15:05:44.546Z,100302.80
2019-03-01T15:08:16.490Z,100315.17
2019-03-01T15:10:48.474Z,100313.67
2019-03-01T15:13:20.573Z,100318.38
2019-03-01T15:15:52.467Z,100321.02
2019-03-01T15:18:25.131Z,100321.17
2019-03-01T15:21:02.385Z,100326.33
2019-03-01T15:23:30.982Z,100334.57
2019-03-01T15:26:02.990Z,100329.17
2019-03-01T15:28:46.484Z,100335.63
2019-03-01T15:31:18.378Z,100333.09
2019-03-01T15:33:50.511Z,100349.38
2019-03-01T15:36:22.686Z,100341.98
2019-03-01T15:38:54.733Z,100347.12
2019-03-01T15:41:26.588Z,100355.02
2019-03-01T15:43:58.578Z,100355.50
2019-03-01T15:46:30.458Z,100356.38
2019-03-01T15:49:02.422Z,100359.41
2019-03-01T15:51:38.232Z,100354.59
2019-03-01T15:54:10.217Z,100361.55
2019-03-01T15:56:42.979Z,100362.86
2019-03-01T15:59:15.806Z,100369.42
2019-03-01T16:01:48.191Z,100372.44
2019-03-01T16:04:20.185Z,100368.02
2019-03-01T16:06:55.292Z,100371.17
2019-03-01T16:09:26.408Z,100377.27
2019-03-01T16:11:58.525Z,100380.80
2019-03-01T16:14:30.459Z,100386.93
2019-03-01T16:17:02.661Z,100381.72
2019-03-01T16:19:36.162Z,100392.17
2019-03-01T16:22:08.091Z,100391.34
2019-03-01T16:24:41.580Z,100404.09
2019-03-01T16:27:15.324Z,100414.55
2019-03-01T16:29:47.455Z,100411.56
2019-03-01T16:32:19.405Z,100416.35
2019-03-01T16:34:51.492Z,100423.30
2019-03-01T16:37:26.075Z,100428.14
2019-03-01T16:40:00.241Z,100436.03
2019-03-01T16:42:38.236Z,100432.55
2019-03-01T16:45:17.658Z,100442.19
2019-03-01T16:48:19.447Z,100441.31
2019-03-01T16:51:18.697Z,100436.92
2019-03-01T16:53:50.752Z,100444.35
2019-03-01T16:56:22.710Z,100442.62
2019-03-01T16:58:54.688Z,100445.70
2019-03-01T17:01:29.801Z,100444.81
2019-03-01T17:04:00.297Z,100453.13
2019-03-01T17:06:32.377Z,100453.55
2019-03-01T17:09:06.286Z,100457.05
2019-03-01T17:11:41.489Z,100457.03
2019-03-01T17:14:12.572Z,100463.60
2019-03-01T17:16:52.270Z,100464.93
2019-03-01T17:19:27.457Z,100467.98
2019-03-01T17:21:58.481Z,100463.17
2019-03-01T17:24:32.672Z,100461.85
2019-03-01T17:27:05.726Z,100460.54
2019-03-01T17:29:39.903Z,100462.72
2019-03-01T17:32:12.316Z,100465.80
2019-03-01T17:34:47.483Z,100475.84
2019-03-01T17:37:19.648Z,100485.02
2019-03-01T17:39:53.162Z,100488.53
2019-03-01T17:42:25.816Z,100501.20
2019-03-01T17:44:57.952Z,100494.65
2019-03-01T17:47:30.502Z,100497.69
2019-03-01T17:50:05.548Z,100501.18
2019-03-01T17:52:37.319Z,100505.58
2019-03-01T17:55:13.590Z,100516.48
2019-03-01T18:02:08.214Z,100522.17
2019-03-01T18:05:43.380Z,100525.66
2019-03-01T18:08:21.399Z,100534.38
2019-03-01T18:10:53.588Z,100525.66
2019-03-01T18:13:27.065Z,100533.95
2019-03-01T18:16:01.135Z,100531.33
2019-03-01T18:18:35.498Z,100531.72
2019-03-01T18:21:10.156Z,100538.72
2019-03-01T18:23:47.146Z,100533.48
2019-03-01T18:26:23.964Z,100537.85
2019-03-01T18:29:47.395Z,100540.03
2019-03-01T19:54:08.322Z,100641.70
2019-03-01T19:57:59.481Z,100649.56
2019-03-01T20:04:36.808Z,100658.67
2019-03-01T20:09:23.494Z,100664.82
2019-03-01T20:10:47.613Z,100667.92
2019-03-01T20:13:33.099Z,100670.08
2019-03-01T20:16:05.363Z,100672.72
2019-03-01T20:19:08.666Z,100670.13
2019-03-01T20:21:41.403Z,100675.83
2019-03-01T20:24:40.412Z,100673.58
2019-03-01T20:28:24.761Z,100681.91
2019-03-01T20:30:45.801Z,100677.52
2019-03-01T20:34:53.498Z,100677.95
2019-03-01T20:36:58.481Z,100674.44
2019-03-01T20:39:34.662Z,100686.18
2019-03-01T20:42:31.765Z,100681.33
2019-03-01T20:45:09.184Z,100680.96
2019-03-01T20:47:42.539Z,100687.06
2019-03-01T20:50:15.663Z,100688.77
2019-03-01T20:53:02.584Z,100688.30
2019-03-01T20:55:38.386Z,100691.34
2019-03-01T20:58:11.226Z,100695.72
2019-03-01T21:00:43.581Z,100696.16
2019-03-01T21:03:16.135Z,100696.14
2019-03-01T21:05:50.098Z,100707.97
2019-03-01T21:08:22.511Z,100709.27
2019-03-01T21:10:57.741Z,100709.27
2019-03-01T21:13:32.016Z,100713.18
2019-03-01T21:16:05.418Z,100714.45
2019-03-01T21:18:37.509Z,100711.44
2019-03-01T21:21:09.524Z,100710.09
2019-03-01T21:23:41.463Z,100714.92
2019-03-01T21:26:15.615Z,100717.08
2019-03-01T21:28:47.119Z,100719.27
2019-03-01T21:31:18.973Z,100717.12
2019-03-01T21:33:54.939Z,100723.64
2019-03-01T21:36:27.128Z,100727.10
2019-03-01T21:38:59.261Z,100726.26
2019-03-01T21:41:31.291Z,100727.95
2019-03-01T21:44:03.284Z,100732.72
2019-03-01T21:46:35.414Z,100734.91
2019-03-01T21:49:07.932Z,100739.69
2019-03-01T21:51:39.936Z,100741.45
2019-03-01T21:54:12.644Z,100742.29
2019-03-01T21:56:55.395Z,100736.16
2019-03-01T21:59:18.878Z,100743.99
2019-03-01T22:01:52.640Z,100748.02
2019-03-01T22:04:24.292Z,100744.95
2019-03-01T22:07:01.872Z,100751.92
2019-03-01T22:09:30.732Z,100758.91
2019-03-01T22:12:02.732Z,100762.80
2019-03-01T22:14:34.600Z,100761.98
2019-03-01T22:17:06.491Z,100756.72
2019-03-01T22:19:38.873Z,100766.34
2019-03-01T22:22:10.722Z,100765.03
2019-03-01T22:24:42.610Z,100769.02
2019-03-01T22:27:14.426Z,100772.05
2019-03-01T22:29:47.345Z,100766.33
2019-03-01T22:32:19.848Z,100760.28
2019-03-01T22:34:51.695Z,100764.59
2019-03-01T22:37:24.791Z,100762.85
2019-03-01T22:39:57.192Z,100760.70
2019-03-01T22:42:29.054Z,100762.47
2019-03-01T22:45:00.894Z,100763.31
2019-03-01T22:47:36.003Z,100768.98
2019-03-01T22:50:07.908Z,100761.98
2019-03-01T22:52:39.816Z,100765.94
2019-03-01T22:55:13.441Z,100761.09
2019-03-01T22:57:45.290Z,100766.34
2019-03-01T23:01:12.234Z,100764.59
2019-03-01T23:04:08.149Z,100765.50
2019-03-01T23:06:40.020Z,100766.33
2019-03-01T23:09:20.425Z,100768.98
2019-03-01T23:11:52.209Z,100766.78
2019-03-01T23:14:24.041Z,100766.34
2019-03-01T23:16:55.849Z,100772.01
2019-03-01T23:19:27.677Z,100769.37
2019-03-01T23:22:00.665Z,100766.28
2019-03-01T23:24:35.137Z,100775.47
2019-03-01T23:27:06.009Z,100775.94
2019-03-01T23:29:37.892Z,100782.45
2019-03-01T23:32:11.868Z,100788.55
2019-03-01T23:34:43.799Z,100788.56
2019-03-01T23:37:15.846Z,100786.33
2019-03-01T23:39:47.724Z,100790.65
2019-03-01T23:42:20.885Z,100787.13
2019-03-01T23:44:53.213Z,100791.97
2019-03-01T23:47:25.097Z,100794.63
2019-03-01T23:49:59.299Z,100793.73
2019-03-01T23:52:30.415Z,100795.56
2019-03-01T23:55:02.202Z,100792.47
2019-03-01T23:57:34.113Z,100788.95
